Time;durP1;ratioP1;P1;durP2;ratioP2;P2;SDS_P1;SDS_P2;PMS_P1;PMS_P2;Temp;Humidity;BMP_temperature;BMP_pressure;BME280_temperature;BME280_humidity;BME280_pressure;Samples;Min_cycle;Max_cycle;Signal;HPM_P1;HPM_P2
2023/09/09 00:01:56;;;;;;;8.98;8.07;;;19.00;96.30;;;18.90;67.43;101006.94;5092383;28;20448;-75
2023/09/09 00:04:29;;;;;;;8.82;7.60;;;18.80;96.60;;;18.92;66.82;101011.09;5092702;28;20449;-74
2023/09/09 00:07:03;;;;;;;9.17;7.93;;;18.90;96.50;;;18.87;66.86;101007.34;5092596;28;20895;-74
2023/09/09 00:09:37;;;;;;;9.40;7.85;;;18.90;96.60;;;18.69;67.72;101011.50;5092289;28;20420;-74
2023/09/09 00:12:11;;;;;;;8.27;7.47;;;18.60;96.90;;;18.73;67.61;101012.72;5092484;28;20432;-74
2023/09/09 00:14:45;;;;;;;9.18;7.60;;;18.70;97.10;;;18.89;66.26;101010.69;5092946;28;20507;-74
2023/09/09 00:17:18;;;;;;;8.30;7.25;;;18.90;96.30;;;18.82;66.90;101002.53;5092369;28;20452;-74
2023/09/09 00:19:52;;;;;;;8.43;7.57;;;18.90;96.60;;;18.81;67.36;101013.59;5093035;28;20508;-74
2023/09/09 00:22:25;;;;;;;9.80;7.10;;;18.70;97.10;;;18.89;66.80;101005.25;5092716;28;20452;-74
2023/09/09 00:24:59;;;;;;;8.15;7.35;;;18.90;96.70;;;18.72;67.07;100999.41;5091931;28;20451;-74
2023/09/09 00:27:32;;;;;;;9.33;7.40;;;18.70;97.00;;;18.73;67.03;100999.19;5093099;28;20535;-74
2023/09/09 00:30:06;;;;;;;9.07;8.13;;;18.70;97.20;;;18.54;67.78;101000.00;5092625;28;20961;-74
2023/09/09 00:32:40;;;;;;;8.80;7.93;;;18.50;97.70;;;18.44;68.58;100991.38;5096096;28;20910;-72
2023/09/09 00:35:14;;;;;;;8.25;7.45;;;18.40;98.30;;;18.41;69.02;100990.97;5096643;28;20448;-72
2023/09/09 00:37:47;;;;;;;8.18;7.38;;;18.30;98.50;;;18.45;68.31;100987.66;5096547;28;20786;-72
2023/09/09 00:40:21;;;;;;;10.73;8.43;;;18.50;98.20;;;18.31;68.90;100990.53;5096661;28;20489;-72
2023/09/09 00:42:54;;;;;;;8.27;7.45;;;18.30;98.40;;;18.38;69.35;100991.38;5095692;28;20945;-72
2023/09/09 00:45:29;;;;;;;9.65;7.40;;;18.40;98.60;;;18.21;69.10;100996.34;5096537;28;20476;-72
2023/09/09 00:48:02;;;;;;;10.23;7.97;;;18.30;98.50;;;18.25;69.53;100992.19;5096336;28;20824;-72
2023/09/09 00:50:36;;;;;;;8.57;7.68;;;18.20;99.10;;;18.32;68.95;100990.34;5095703;28;20424;-72
2023/09/09 00:53:09;;;;;;;8.88;7.88;;;18.50;98.30;;;18.24;68.33;100987.78;5096094;28;20430;-72
2023/09/09 00:55:44;;;;;;;10.05;8.48;;;18.30;98.50;;;18.14;69.39;100990.91;5095727;28;20969;-72
2023/09/09 00:58:19;;;;;;;8.68;7.75;;;18.10;99.10;;;18.18;69.48;100992.13;5096096;28;20478;-72
2023/09/09 01:00:53;;;;;;;9.38;8.25;;;18.20;99.20;;;18.12;69.57;100992.13;5095976;28;20420;-72
2023/09/09 01:03:26;;;;;;;8.60;7.27;;;18.10;99.30;;;18.06;69.76;100984.81;5096442;28;20589;-72
2023/09/09 01:06:00;;;;;;;10.83;8.30;;;18.10;99.10;;;17.92;69.97;100981.22;5095897;28;20485;-72
2023/09/09 01:08:33;;;;;;;10.23;8.20;;;17.90;99.70;;;17.98;69.73;100985.00;5095742;28;20423;-73
2023/09/09 01:11:07;;;;;;;9.45;7.95;;;18.00;99.90;;;18.12;69.19;100981.28;5095743;28;20424;-73
2023/09/09 01:13:40;;;;;;;10.75;8.32;;;18.30;99.30;;;18.12;69.22;100984.00;5095313;28;20511;-73
2023/09/09 01:16:15;;;;;;;8.80;7.67;;;18.30;98.90;;;17.94;69.86;100978.31;5095339;28;20436;-73
2023/09/09 01:18:49;;;;;;;9.32;8.38;;;18.00;99.80;;;17.76;71.68;100980.72;5094980;28;20808;-73
2023/09/09 01:21:25;;;;;;;10.50;8.30;;;17.70;99.90;;;17.81;70.53;100983.69;5095487;28;20427;-73
2023/09/09 01:23:59;;;;;;;9.00;8.10;;;17.90;99.90;;;17.87;69.85;100991.00;5095191;28;20425;-73
2023/09/09 01:26:32;;;;;;;11.27;8.50;;;18.10;99.90;;;17.69;71.17;100991.53;5094801;28;20913;-73
2023/09/09 01:29:06;;;;;;;9.70;8.32;;;17.80;99.90;;;17.77;71.02;100985.13;5095295;28;20425;-73
2023/09/09 01:31:39;;;;;;;10.50;8.45;;;17.80;99.90;;;17.78;70.60;100989.47;5094879;28;20448;-73
2023/09/09 01:34:13;;;;;;;9.55;8.50;;;17.90;99.90;;;17.67;71.33;100988.19;5094578;28;20803;-73
2023/09/09 01:36:47;;;;;;;9.90;8.10;;;17.80;99.90;;;17.53;72.09;100992.69;5094872;28;20478;-73
2023/09/09 01:39:20;;;;;;;10.57;8.70;;;17.60;99.90;;;17.53;71.04;100986.41;5094759;28;20795;-73
2023/09/09 01:41:54;;;;;;;11.82;8.60;;;17.60;99.90;;;17.46;71.03;100991.78;5094118;28;20794;-73
2023/09/09 01:44:27;;;;;;;8.80;7.90;;;17.50;99.90;;;17.48;71.88;100988.88;5094704;28;20426;-73
2023/09/09 01:47:00;;;;;;;9.07;8.13;;;17.60;99.90;;;17.53;71.79;100992.69;5094854;28;20440;-73
2023/09/09 01:49:34;;;;;;;9.25;7.78;;;17.60;99.90;;;17.53;72.01;100992.69;5095744;28;20449;-73
2023/09/09 01:52:08;;;;;;;9.50;8.55;;;17.60;99.90;;;17.43;71.83;100984.06;5094803;28;20507;-73
2023/09/09 01:54:41;;;;;;;8.77;7.88;;;17.50;99.90;;;17.26;73.06;100974.56;5094893;28;20425;-73
2023/09/09 01:57:16;;;;;;;9.13;8.30;;;17.30;99.90;;;17.28;73.00;100982.50;5094643;28;20890;-73
2023/09/09 01:59:49;;;;;;;9.77;8.60;;;17.30;99.90;;;17.34;72.68;100977.13;5094960;28;20424;-73
2023/09/09 02:02:23;;;;;;;9.75;8.52;;;17.50;99.90;;;17.39;71.68;100984.66;5094450;28;20503;-73
2023/09/09 02:04:56;;;;;;;9.40;8.40;;;17.50;99.90;;;17.29;72.33;100979.63;5094939;28;20454;-73
2023/09/09 02:07:29;;;;;;;9.20;7.70;;;17.40;99.90;;;17.31;72.35;100988.34;5095454;28;20262;-73
2023/09/09 02:10:03;;;;;;;9.60;8.10;;;17.40;99.90;;;17.38;72.28;100977.56;5094344;28;20497;-73
2023/09/09 02:12:36;;;;;;;8.77;7.60;;;17.60;99.90;;;17.34;72.37;100969.00;5095101;28;20503;-73
2023/09/09 02:15:14;;;;;;;8.70;7.90;;;17.50;99.90;;;17.44;71.84;100974.06;5094766;28;20556;-73
2023/09/09 02:17:49;;;;;;;9.75;8.00;;;17.60;99.90;;;17.36;71.81;100971.53;5094004;28;20464;-73
2023/09/09 02:20:22;;;;;;;10.43;8.33;;;17.50;99.90;;;17.32;71.58;100976.50;5094947;28;20207;-73
2023/09/09 02:22:56;;;;;;;9.13;7.85;;;17.50;99.90;;;17.19;72.98;100974.53;5094451;28;20609;-74
2023/09/09 02:25:29;;;;;;;9.00;8.20;;;17.40;99.90;;;17.01;73.85;100976.91;5094094;28;20420;-74
2023/09/09 02:28:03;;;;;;;9.07;8.15;;;17.20;99.90;;;16.97;74.19;100969.38;5093918;28;20837;-74
2023/09/09 02:30:37;;;;;;;9.32;8.43;;;17.10;99.90;;;16.96;74.25;100976.66;5093905;28;20432;-75
2023/09/09 02:33:10;;;;;;;9.95;8.18;;;17.10;99.90;;;16.93;74.07;100978.91;5093495;28;20460;-75
2023/09/09 02:35:47;;;;;;;9.77;8.50;;;17.10;99.90;;;16.93;73.88;100970.78;5094022;28;20432;-75
2023/09/09 02:38:21;;;;;;;9.48;8.45;;;17.10;99.90;;;17.01;73.30;100978.78;5093976;28;20431;-75
2023/09/09 02:40:54;;;;;;;9.30;8.10;;;17.20;99.90;;;17.05;73.10;100969.25;5094601;28;20481;-74
2023/09/09 02:43:27;;;;;;;9.57;8.27;;;17.30;99.90;;;16.95;74.18;100971.44;5093769;28;20427;-74
2023/09/09 02:46:01;;;;;;;10.67;8.47;;;17.00;99.90;;;16.96;74.23;100976.66;5094383;28;20753;-74
2023/09/09 02:48:35;;;;;;;8.68;7.82;;;17.10;99.90;;;16.93;73.33;100984.31;5093955;28;20420;-65
2023/09/09 02:51:08;;;;;;;10.85;9.15;;;17.10;99.90;;;16.83;74.86;100981.13;5093452;28;20873;-73
2023/09/09 02:53:42;;;;;;;9.17;8.27;;;16.90;99.90;;;16.70;75.61;100973.72;5092125;28;20421;-73
2023/09/09 02:56:16;;;;;;;9.10;8.20;;;16.80;99.90;;;16.67;75.20;100980.38;5093991;28;20463;-73
2023/09/09 02:58:49;;;;;;;10.05;8.80;;;16.80;99.90;;;16.67;75.38;100974.97;5092217;28;20439;-73
2023/09/09 03:01:22;;;;;;;9.82;8.65;;;16.20;99.90;;;16.62;75.44;100972.00;5093165;28;20424;-73
2023/09/09 03:03:56;;;;;;;9.60;8.60;;;16.80;99.90;;;16.61;75.18;100973.00;5093002;28;20901;-73
2023/09/09 03:06:29;;;;;;;10.25;8.80;;;16.80;99.90;;;16.53;76.58;100970.44;5093305;28;20441;-73
2023/09/09 03:09:03;;;;;;;11.57;9.10;;;16.60;99.90;;;16.46;76.02;100968.69;5092782;28;20890;-73
2023/09/09 03:11:37;;;;;;;9.50;8.45;;;16.70;99.90;;;16.52;76.69;100966.03;5093084;28;20431;-73
2023/09/09 03:14:10;;;;;;;10.30;9.20;;;16.70;99.90;;;16.55;75.93;100971.09;5093119;28;20854;-74
2023/09/09 03:16:45;;;;;;;10.05;9.00;;;16.80;99.90;;;16.45;76.76;100965.13;5093161;28;20413;-74
2023/09/09 03:19:19;;;;;;;10.25;9.25;;;16.60;99.90;;;16.51;76.61;100966.22;5093034;28;20438;-74
2023/09/09 03:21:52;;;;;;;10.50;9.30;;;16.70;99.90;;;16.48;76.09;100959.34;5092826;28;20459;-74
2023/09/09 03:24:26;;;;;;;10.00;8.60;;;16.70;99.90;;;16.54;76.69;100963.97;5092997;28;20503;-74
2023/09/09 03:26:59;;;;;;;9.27;8.23;;;16.80;99.90;;;16.71;75.08;100960.00;5092639;28;20448;-74
2023/09/09 03:29:33;;;;;;;9.82;8.77;;;17.00;99.90;;;16.87;73.70;100960.75;5092745;28;20490;-74
2023/09/09 03:32:08;;;;;;;9.77;8.43;;;17.20;99.90;;;16.85;73.61;100965.53;5092591;28;20832;-74
2023/09/09 03:34:41;;;;;;;9.25;8.27;;;17.20;99.90;;;16.85;73.04;100960.13;5092591;28;20990;-74
2023/09/09 03:37:14;;;;;;;9.35;8.38;;;17.20;99.90;;;16.71;75.25;100962.72;5092609;28;20425;-74
2023/09/09 03:39:48;;;;;;;10.30;9.27;;;17.10;99.90;;;16.51;74.93;100958.97;5092599;28;20424;-74
2023/09/09 03:42:21;;;;;;;11.00;9.85;;;16.80;99.90;;;16.38;75.81;100958.84;5092557;28;20432;-73
2023/09/09 03:44:54;;;;;;;10.35;9.43;;;16.60;99.90;;;16.43;76.95;100952.84;5092541;28;20421;-73
2023/09/09 03:47:28;;;;;;;9.70;8.80;;;16.60;99.90;;;16.64;75.77;100963.69;5092712;28;20440;-73
2023/09/09 03:50:01;;;;;;;9.87;8.97;;;17.00;99.90;;;16.57;75.25;100958.25;5092568;28;20840;-73
2023/09/09 03:52:34;;;;;;;10.65;9.75;;;16.90;99.90;;;16.40;76.41;100962.19;5092356;28;20431;-73
2023/09/09 03:55:09;;;;;;;11.05;9.95;;;16.60;99.90;;;16.36;75.66;100960.06;5093232;28;20467;-73
2023/09/09 03:57:42;;;;;;;10.48;9.25;;;16.50;99.90;;;16.37;75.49;100959.84;5092419;28;20421;-73
2023/09/09 04:00:19;;;;;;;11.05;9.90;;;16.60;99.90;;;16.30;76.27;100955.44;5092006;28;20507;-73
2023/09/09 04:02:53;;;;;;;10.90;9.90;;;16.50;99.90;;;16.35;75.81;100964.63;5092004;28;20894;-73
2023/09/09 04:05:26;;;;;;;10.50;9.55;;;16.60;99.90;;;16.38;75.35;100956.13;5095329;28;20473;-73
2023/09/09 04:08:03;;;;;;;10.33;9.33;;;16.60;99.90;;;16.35;76.06;100970.03;5099158;28;20487;-73
2023/09/09 04:10:36;;;;;;;11.13;9.93;;;16.60;99.90;;;16.23;76.05;100966.97;5098952;28;20885;-73
2023/09/09 04:13:10;;;;;;;11.20;10.00;;;16.80;99.90;;;16.23;76.57;100968.88;5098565;28;20976;-73
2023/09/09 04:15:44;;;;;;;12.95;10.18;;;16.40;99.90;;;16.10;77.31;100976.81;5099907;28;20426;-73
2023/09/09 04:18:17;;;;;;;9.95;8.95;;;16.30;99.90;;;16.06;76.60;100970.13;5100030;28;20399;-73
2023/09/09 04:21:02;;;;;;;11.93;10.63;;;16.30;99.90;;;15.95;77.22;100971.47;5098733;28;20427;-73
2023/09/09 04:23:36;;;;;;;11.57;10.53;;;16.20;99.90;;;15.88;78.36;100969.69;5099402;28;20558;-73
2023/09/09 04:26:10;;;;;;;10.77;9.77;;;16.10;99.90;;;15.95;77.07;100974.16;5098582;28;20431;-73
2023/09/09 04:28:43;;;;;;;11.05;10.05;;;16.10;99.90;;;16.02;76.22;100975.06;5099227;28;20436;-73
2023/09/09 04:31:16;;;;;;;12.48;10.65;;;16.30;99.90;;;15.90;76.66;100975.75;5098783;28;20416;-73
2023/09/09 04:33:50;;;;;;;11.67;10.57;;;16.20;99.90;;;15.82;77.42;100965.06;5099069;28;20511;-73
2023/09/09 04:36:23;;;;;;;12.00;10.80;;;16.10;99.90;;;15.78;78.14;100971.88;5098925;28;20424;-73
2023/09/09 04:38:56;;;;;;;11.70;10.65;;;16.00;99.90;;;15.79;77.82;100968.16;5099160;28;20416;-73
2023/09/09 04:41:30;;;;;;;11.43;10.30;;;16.00;99.90;;;15.76;77.55;100957.69;5098696;28;20416;-73
2023/09/09 04:44:03;;;;;;;11.55;10.45;;;16.00;99.90;;;15.69;78.82;100963.84;5098902;28;20477;-73
2023/09/09 04:46:37;;;;;;;11.60;10.55;;;16.00;99.90;;;15.78;77.91;100966.47;5099246;28;20420;-73
2023/09/09 04:49:10;;;;;;;11.00;9.90;;;16.10;99.90;;;15.87;76.53;100976.97;5099570;28;20428;-73
2023/09/09 04:51:43;;;;;;;10.68;9.65;;;16.20;99.90;;;15.86;76.79;100969.03;5099033;28;20428;-73
2023/09/09 04:54:18;;;;;;;10.80;9.80;;;16.10;99.90;;;15.75;77.52;100970.38;5098974;28;20431;-73
2023/09/09 04:56:51;;;;;;;11.00;10.00;;;16.00;99.90;;;15.73;77.72;100973.25;5098824;28;20464;-73
2023/09/09 04:59:24;;;;;;;11.55;10.35;;;16.00;99.90;;;15.77;77.45;100970.19;5098439;28;20999;-73
2023/09/09 05:01:58;;;;;;;12.60;10.80;;;16.00;99.90;;;15.80;77.88;100975.19;5098529;28;20503;-73
2023/09/09 05:04:31;;;;;;;10.82;9.82;;;16.10;99.90;;;15.87;76.98;100981.53;5098350;28;20421;-73
2023/09/09 05:07:04;;;;;;;11.05;9.95;;;16.20;99.90;;;15.75;77.44;100974.94;5098744;28;20435;-73
2023/09/09 05:09:38;;;;;;;11.23;10.13;;;16.10;99.90;;;15.77;77.43;100973.72;5098383;28;20511;-73
2023/09/09 05:12:12;;;;;;;11.07;10.07;;;16.10;99.90;;;15.67;77.64;100976.72;5098060;28;20427;-73
2023/09/09 05:14:45;;;;;;;10.70;9.57;;;16.00;99.90;;;15.77;77.32;100980.97;5099678;28;20431;-73
2023/09/09 05:17:18;;;;;;;11.25;10.15;;;16.10;99.90;;;15.77;77.43;100972.88;5095799;28;20878;-73
2023/09/09 05:19:51;;;;;;;11.70;10.53;;;16.20;99.90;;;15.67;79.63;100975.88;5095449;28;20489;-73
2023/09/09 05:22:25;;;;;;;11.75;10.65;;;16.00;99.90;;;15.62;78.36;100979.13;5095348;28;20425;-73
2023/09/09 05:24:58;;;;;;;11.57;10.48;;;15.90;99.90;;;15.63;78.05;100975.41;5094988;28;20914;-73
2023/09/09 05:27:31;;;;;;;11.48;10.40;;;15.90;99.90;;;15.69;78.25;100980.06;5094983;28;20449;-73
2023/09/09 05:30:04;;;;;;;11.02;9.93;;;16.00;99.90;;;15.70;78.65;100986.28;5095368;28;20482;-73
2023/09/09 05:32:38;;;;;;;11.15;10.10;;;16.00;99.90;;;15.77;78.12;100981.81;5094634;28;20846;-73
2023/09/09 05:35:15;;;;;;;11.52;10.40;;;16.10;99.90;;;15.79;78.01;100989.75;5095134;28;20420;-73
2023/09/09 05:37:49;;;;;;;11.27;10.20;;;16.10;99.90;;;15.78;78.83;100982.66;5094880;28;20421;-73
2023/09/09 05:40:22;;;;;;;11.52;10.38;;;16.10;99.90;;;15.77;78.58;100989.06;5095196;28;20864;-73
2023/09/09 05:42:56;;;;;;;11.90;10.70;;;16.10;99.90;;;15.75;78.74;100983.88;5094713;28;20615;-73
2023/09/09 05:45:29;;;;;;;11.18;9.93;;;16.10;99.90;;;15.84;78.18;100990.00;5094729;28;20447;-73
2023/09/09 05:48:03;;;;;;;11.95;10.77;;;16.20;99.90;;;15.82;79.27;100984.81;5094373;28;20436;-73
2023/09/09 05:50:36;;;;;;;10.85;9.73;;;16.20;99.90;;;15.96;78.19;100991.22;5094615;28;20421;-73
2023/09/09 05:53:10;;;;;;;11.27;10.07;;;16.40;99.90;;;16.00;79.00;100992.47;5094184;28;20869;-73
2023/09/09 05:55:44;;;;;;;11.10;10.10;;;16.40;99.90;;;16.04;78.65;100996.47;5094221;28;20898;-73
2023/09/09 05:58:17;;;;;;;11.18;10.00;;;16.50;99.90;;;16.11;78.23;101000.09;5094415;28;20420;-73
2023/09/09 06:00:50;;;;;;;11.25;10.05;;;16.50;99.90;;;16.17;78.85;100999.31;5094406;28;20420;-73
2023/09/09 06:03:24;;;;;;;11.55;10.43;;;16.60;99.90;;;16.18;78.44;100995.63;5094494;28;20500;-73
2023/09/09 06:05:57;;;;;;;11.68;10.50;;;16.60;99.90;;;16.21;78.72;100998.78;5094363;28;20428;-73
2023/09/09 06:08:31;;;;;;;10.80;9.70;;;16.70;99.90;;;16.24;77.36;100992.13;5094493;28;20444;-73
2023/09/09 06:11:04;;;;;;;10.40;9.27;;;16.70;99.90;;;16.28;78.00;100996.13;5094181;28;20498;-73
2023/09/09 06:13:37;;;;;;;10.40;9.30;;;16.80;99.90;;;16.32;77.71;101002.84;5093869;28;20848;-73
2023/09/09 06:16:11;;;;;;;11.15;9.95;;;16.70;99.90;;;16.36;78.31;100997.88;5094205;28;20451;-73
2023/09/09 06:18:45;;;;;;;10.07;8.98;;;16.80;99.90;;;16.36;78.42;100998.72;5094251;28;20801;-73
2023/09/09 06:21:18;;;;;;;10.35;9.10;;;16.80;99.90;;;16.40;78.09;101000.03;5094103;28;20421;-73
2023/09/09 06:23:52;;;;;;;10.00;9.10;;;16.90;99.90;;;16.43;77.39;101002.34;5093834;28;20443;-73
2023/09/09 06:26:30;;;;;;;12.77;10.13;;;16.90;99.90;;;16.46;78.07;101012.75;5093836;28;20451;-73
2023/09/09 06:29:03;;;;;;;10.95;9.85;;;17.00;99.90;;;16.51;78.57;101012.16;5093698;28;20527;-73
2023/09/09 06:31:37;;;;;;;12.10;9.32;;;17.00;99.90;;;16.54;78.36;101007.22;5094123;28;20413;-73
2023/09/09 06:34:12;;;;;;;11.20;9.80;;;17.00;99.90;;;16.57;78.32;101006.88;5094309;28;20444;-73
2023/09/09 06:36:45;;;;;;;13.38;9.63;;;17.10;99.90;;;16.60;78.76;101006.50;5093970;28;20424;-73
2023/09/09 06:39:19;;;;;;;11.25;10.15;;;17.10;99.90;;;16.64;78.84;101010.47;5093562;28;20496;-73
2023/09/09 06:41:52;;;;;;;12.38;10.45;;;17.10;99.90;;;16.69;79.15;101009.91;5093615;28;20929;-73
2023/09/09 06:44:25;;;;;;;11.23;10.10;;;17.20;99.90;;;16.72;79.93;101013.06;5093615;28;20507;-73
2023/09/09 06:46:58;;;;;;;11.10;9.70;;;17.20;99.90;;;16.77;78.11;101006.22;5093237;28;20420;-73
2023/09/09 06:49:34;;;;;;;10.60;9.50;;;17.30;99.90;;;16.83;78.81;101016.25;5093210;28;20941;-73
2023/09/09 06:52:09;;;;;;;11.20;9.48;;;17.30;99.90;;;16.86;78.14;101015.88;5093463;28;20417;-73
2023/09/09 06:54:43;;;;;;;11.68;9.13;;;17.40;99.90;;;16.90;77.66;101022.56;5093048;28;20785;-73
2023/09/09 06:57:17;;;;;;;13.43;10.40;;;17.50;99.90;;;16.99;79.43;101021.41;5093757;28;20499;-73
2023/09/09 06:59:50;;;;;;;13.45;10.07;;;17.60;99.90;;;17.05;78.94;101026.88;5093447;28;20421;-73
2023/09/09 07:02:23;;;;;;;15.15;10.15;;;17.60;99.90;;;17.11;77.77;101019.84;5093206;28;20452;-73
2023/09/09 07:04:58;;;;;;;10.85;9.70;;;17.70;99.90;;;17.17;79.10;101021.75;5093306;28;20464;-73
2023/09/09 07:07:31;;;;;;;15.10;10.15;;;17.80;99.90;;;17.23;79.48;101024.50;5093164;28;20417;-73
2023/09/09 07:10:16;;;;;;;12.38;10.45;;;17.80;99.90;;;17.27;78.63;101016.84;5093381;28;20449;-73
2023/09/09 07:12:50;;;;;;;11.27;9.43;;;17.90;99.90;;;17.34;79.54;101020.44;5093202;28;20429;-73
2023/09/09 07:15:24;;;;;;;11.50;8.70;;;17.90;99.90;;;17.44;78.22;101020.91;5092833;28;20793;-73
2023/09/09 07:17:59;;;;;;;12.47;9.13;;;18.10;99.90;;;17.51;78.27;101021.81;5093306;28;20428;-73
2023/09/09 07:20:32;;;;;;;11.90;9.18;;;18.20;99.90;;;17.57;77.36;101018.31;5092959;28;20420;-73
2023/09/09 07:23:06;;;;;;;11.95;9.30;;;18.20;99.90;;;17.64;78.66;101023.78;5092883;28;20421;-73
2023/09/09 07:25:39;;;;;;;13.27;8.77;;;18.40;99.90;;;17.70;77.85;101020.28;5093507;28;20515;-73
2023/09/09 07:28:13;;;;;;;12.57;8.63;;;18.40;99.90;;;17.91;76.32;101027.50;5093038;28;20499;-73
2023/09/09 07:30:46;;;;;;;9.57;8.00;;;18.50;99.90;;;18.02;76.24;101019.59;5092963;28;20420;-73
2023/09/09 07:33:20;;;;;;;10.05;8.10;;;18.70;99.90;;;18.02;76.71;101024.19;5092668;28;20433;-73
2023/09/09 07:35:53;;;;;;;9.80;7.53;;;18.80;99.90;;;18.08;76.77;101024.22;5092857;28;20424;-73
2023/09/09 07:38:26;;;;;;;8.20;7.28;;;18.80;99.90;;;18.27;74.58;101022.63;5092877;28;20505;-73
2023/09/09 07:41:03;;;;;;;8.48;7.43;;;19.00;99.90;;;18.53;73.60;101028.13;5092174;28;20499;-73
2023/09/09 07:43:37;;;;;;;11.33;7.77;;;19.20;99.90;;;18.79;72.81;101031.94;5092203;28;20420;-73
2023/09/09 07:46:10;;;;;;;9.90;7.72;;;19.40;99.90;;;18.86;72.73;101027.38;5092563;28;20421;-73
2023/09/09 07:48:44;;;;;;;9.93;7.72;;;19.60;99.90;;;18.94;72.66;101029.91;5092439;28;20444;-73
2023/09/09 07:51:18;;;;;;;8.93;7.43;;;19.60;99.90;;;18.93;73.37;101033.63;5092850;28;20504;-73
2023/09/09 07:53:52;;;;;;;9.50;7.13;;;19.70;99.90;;;19.06;73.81;101033.66;5092575;28;20417;-73
2023/09/09 07:56:25;;;;;;;10.23;7.93;;;19.80;99.90;;;19.09;74.19;101038.66;5093219;28;20512;-73
2023/09/09 07:58:59;;;;;;;10.38;7.63;;;19.80;99.90;;;19.27;72.91;101032.59;5092914;28;20421;-73
2023/09/09 08:01:32;;;;;;;11.55;8.10;;;19.90;99.90;;;19.25;73.59;101027.38;5092440;28;20602;-73
2023/09/09 08:04:05;;;;;;;10.13;7.55;;;20.00;99.90;;;19.37;73.25;101033.84;5093141;28;20432;-75
2023/09/09 08:06:39;;;;;;;12.20;7.55;;;20.20;99.90;;;19.42;73.76;101033.25;5092242;28;20427;-74
2023/09/09 08:09:13;;;;;;;10.43;7.30;;;20.20;99.90;;;19.57;73.56;101036.56;5092214;28;20454;-74
2023/09/09 08:11:46;;;;;;;10.57;6.72;;;20.40;99.90;;;19.76;71.98;101035.66;5093199;28;21037;-74
2023/09/09 08:14:21;;;;;;;7.37;6.40;;;20.60;99.90;;;19.79;73.30;101039.88;5092383;28;20425;-74
2023/09/09 08:16:55;;;;;;;8.00;6.50;;;20.60;99.90;;;19.88;71.31;101033.13;5092356;28;20783;-74
2023/09/09 08:19:29;;;;;;;7.00;6.30;;;20.60;99.90;;;19.98;71.05;101044.38;5092176;28;20428;-74
2023/09/09 08:22:02;;;;;;;10.65;6.63;;;20.80;99.90;;;20.18;70.20;101031.56;5091811;28;20810;-74
2023/09/09 08:24:36;;;;;;;11.45;6.63;;;20.90;99.90;;;20.37;70.98;101032.56;5092710;28;20456;-74
2023/09/09 08:27:09;;;;;;;8.65;6.30;;;21.20;99.90;;;20.62;68.58;101044.31;5092116;28;20460;-74
2023/09/09 08:29:42;;;;;;;7.17;6.43;;;21.40;99.90;;;20.60;69.32;101044.56;5092665;28;20536;-74
2023/09/09 08:32:16;;;;;;;10.03;5.70;;;21.40;99.90;;;20.74;68.49;101037.97;5093027;28;20228;-75
2023/09/09 08:34:51;;;;;;;9.65;6.25;;;21.50;99.90;;;20.89;67.81;101036.84;5092218;28;20507;-74
2023/09/09 08:37:24;;;;;;;11.50;6.10;;;21.70;99.90;;;21.13;67.33;101039.59;5092170;28;20921;-74
2023/09/09 08:39:59;;;;;;;9.73;5.65;;;21.80;99.70;;;21.22;66.86;101042.88;5092745;28;20417;-74
2023/09/09 08:42:47;;;;;;;8.88;6.18;;;21.90;99.70;;;21.19;68.44;101043.31;5092166;28;20771;-74
2023/09/09 08:45:34;;;;;;;6.87;5.73;;;22.00;99.90;;;21.18;68.62;101039.75;5091933;28;20460;-74
2023/09/09 08:48:14;;;;;;;8.40;5.90;;;22.00;99.90;;;21.49;66.43;101052.47;5092032;28;20474;-74
2023/09/09 08:50:50;;;;;;;7.43;5.45;;;22.30;99.10;;;21.45;67.88;101056.69;5092596;28;20856;-74
2023/09/09 08:53:26;;;;;;;7.68;5.80;;;22.20;99.70;;;21.85;66.12;101054.41;5094995;28;20886;-74
2023/09/09 08:56:01;;;;;;;7.72;5.80;;;22.50;99.00;;;21.98;64.82;101053.47;5095236;28;20421;-75
2023/09/09 08:58:36;;;;;;;12.10;6.15;;;22.80;98.10;;;22.21;64.36;101053.59;5095655;28;20942;-75
2023/09/09 09:01:11;;;;;;;8.35;5.60;;;22.90;98.00;;;22.21;64.99;101051.72;5096432;28;20417;-75
2023/09/09 09:03:45;;;;;;;6.95;5.63;;;22.90;98.20;;;22.11;65.67;101048.69;5095447;28;20770;-75
2023/09/09 09:06:20;;;;;;;6.60;5.57;;;23.00;98.40;;;22.20;65.13;101049.19;5096424;28;20852;-73
2023/09/09 09:08:53;;;;;;;7.07;5.50;;;23.00;98.10;;;22.34;64.48;101047.13;5095883;28;20496;-73
2023/09/09 09:11:26;;;;;;;7.07;5.20;;;23.20;97.80;;;22.37;65.13;101049.41;5095903;28;20512;-73
2023/09/09 09:14:11;;;;;;;7.97;5.37;;;23.20;97.90;;;22.34;67.13;101055.31;5095139;28;20428;-73
2023/09/09 09:16:47;;;;;;;14.70;5.50;;;23.30;99.90;;;22.80;61.48;101046.53;5095029;28;20793;-73
2023/09/09 09:19:28;;;;;;;6.65;5.35;;;23.60;96.00;;;22.99;61.02;101056.31;5095687;28;20425;-73
2023/09/09 09:22:03;;;;;;;8.65;5.60;;;23.80;95.50;;;23.24;60.25;101052.31;5095911;28;20438;-72
2023/09/09 09:24:46;;;;;;;6.78;5.20;;;24.00;96.90;;;23.41;59.51;101048.91;5095132;28;20421;-72
2023/09/09 09:27:20;;;;;;;6.10;5.50;;;24.20;94.60;;;23.69;59.14;101052.59;5095734;28;20416;-72
2023/09/09 09:29:54;;;;;;;6.10;5.50;;;24.40;94.60;;;23.56;59.58;101052.03;5095267;28;20529;-72
2023/09/09 09:32:42;;;;;;;7.57;5.15;;;24.30;94.70;;;23.67;58.29;101043.78;5095803;28;20472;-72
2023/09/09 09:35:29;;;;;;;7.90;5.43;;;24.40;93.90;;;23.94;57.98;101046.03;5095921;28;20415;-72
2023/09/09 09:38:06;;;;;;;6.70;5.37;;;24.70;93.80;;;24.20;56.40;101045.53;5094759;28;20416;-72
2023/09/09 09:40:42;;;;;;;7.63;5.20;;;24.90;93.00;;;24.37;56.14;101043.69;5094941;28;20504;-72
2023/09/09 09:43:23;;;;;;;6.40;5.30;;;25.10;92.70;;;24.44;56.59;101049.84;5095080;28;20431;-73
2023/09/09 09:46:12;;;;;;;5.60;5.10;;;25.20;92.70;;;24.36;57.64;101047.47;5095298;28;20425;-73
2023/09/09 09:48:46;;;;;;;6.47;5.13;;;25.10;93.10;;;24.45;55.12;101045.22;5095544;28;20424;-73
2023/09/09 09:51:20;;;;;;;6.38;5.10;;;25.10;91.80;;;24.57;55.83;101046.81;5094370;28;20874;-62
2023/09/09 09:53:57;;;;;;;7.50;5.07;;;25.30;92.10;;;24.97;53.13;101043.16;5095765;28;20225;-69
2023/09/09 09:56:30;;;;;;;5.82;4.88;;;25.50;90.90;;;25.18;52.51;101042.44;5094804;28;20421;-69
2023/09/09 09:59:04;;;;;;;10.25;5.75;;;25.80;90.20;;;25.25;53.67;101037.63;5094487;28;20428;-70
2023/09/09 10:01:40;;;;;;;6.87;5.17;;;25.90;90.70;;;25.56;51.11;101047.19;5094536;28;20886;-70
2023/09/09 10:04:20;;;;;;;6.90;4.78;;;26.10;89.00;;;25.69;51.70;101042.16;5093867;28;20421;-70
2023/09/09 10:07:01;;;;;;;7.45;5.50;;;26.20;90.00;;;25.58;54.10;101045.03;5094231;28;20416;-70
2023/09/09 10:09:43;;;;;;;6.15;5.20;;;26.20;90.80;;;25.67;50.42;101043.50;5094288;28;20424;-70
2023/09/09 10:12:25;;;;;;;11.30;5.07;;;26.20;88.10;;;25.92;49.83;101046.63;5094805;28;20844;-70
2023/09/09 10:15:21;;;;;;;5.00;4.60;;;26.50;86.70;;;25.88;51.39;101042.72;5094601;28;20424;-70
2023/09/09 10:17:57;;;;;;;5.72;4.82;;;26.50;88.90;;;26.04;48.31;101039.09;5094163;28;20453;-70
2023/09/09 10:20:32;;;;;;;7.23;4.80;;;26.60;85.50;;;26.24;46.17;101038.53;5094244;28;20446;-70
2023/09/09 10:23:07;;;;;;;5.40;4.70;;;26.70;81.50;;;26.44;46.45;101038.75;5094534;28;20429;-70
2023/09/09 10:25:42;;;;;;;7.07;4.78;;;27.00;81.50;;;26.43;47.89;101042.63;5094333;28;20421;-70
2023/09/09 10:28:20;;;;;;;6.63;4.80;;;27.00;82.80;;;26.53;46.98;101042.72;5094331;28;20421;-70
2023/09/09 10:30:56;;;;;;;5.47;4.57;;;27.10;82.00;;;26.59;45.96;101033.44;5094721;28;20444;-71
2023/09/09 10:33:34;;;;;;;6.93;4.47;;;27.10;81.40;;;26.85;43.56;101033.75;5094653;28;20239;-71
2023/09/09 10:36:10;;;;;;;4.70;3.85;;;27.30;77.20;;;26.98;42.45;101030.56;5094709;28;20284;-71
2023/09/09 10:38:44;;;;;;;13.13;5.00;;;27.40;75.10;;;27.02;43.53;101034.44;5094979;28;20199;-71